createdAt,value
2022-09-14T00:01:40.559Z,16.50
2022-09-14T00:04:12.227Z,16.40
2022-09-14T00:06:39.358Z,16.40
2022-09-14T00:09:07.092Z,16.40
2022-09-14T00:11:36.249Z,16.40
2022-09-14T00:14:04.384Z,16.40
2022-09-14T00:16:35.097Z,16.40
2022-09-14T00:19:06.439Z,16.30
2022-09-14T00:21:35.855Z,16.40
2022-09-14T00:24:04.334Z,16.40
2022-09-14T00:26:31.577Z,16.40
2022-09-14T00:28:59.964Z,16.40
2022-09-14T00:31:27.271Z,16.40
2022-09-14T00:33:54.760Z,16.50
2022-09-14T00:36:24.916Z,16.50
2022-09-14T00:38:52.875Z,16.50
2022-09-14T00:41:22.598Z,16.60
2022-09-14T00:43:58.778Z,16.60
2022-09-14T00:46:27.972Z,16.60
2022-09-14T00:48:58.796Z,16.60
2022-09-14T00:51:28.078Z,16.70
2022-09-14T00:53:56.019Z,16.70
2022-09-14T00:56:23.377Z,16.70
2022-09-14T00:58:55.032Z,16.70
2022-09-14T01:01:22.518Z,16.70
2022-09-14T01:03:49.957Z,16.70
2022-09-14T01:06:25.547Z,16.70
2022-09-14T01:09:26.975Z,16.60
2022-09-14T01:12:24.391Z,16.60
2022-09-14T01:15:20.491Z,16.60
2022-09-14T01:18:16.520Z,16.60
2022-09-14T01:21:08.769Z,16.60
2022-09-14T01:23:41.421Z,16.50
2022-09-14T01:26:41.526Z,16.50
2022-09-14T01:29:20.940Z,16.50
2022-09-14T01:32:18.157Z,16.50
2022-09-14T01:35:07.130Z,16.50
2022-09-14T01:37:41.592Z,16.40
2022-09-14T01:40:22.031Z,16.40
2022-09-14T01:42:55.597Z,16.50
2022-09-14T01:45:26.736Z,16.40
2022-09-14T01:48:07.144Z,16.50
2022-09-14T01:50:47.848Z,16.40
2022-09-14T01:53:35.390Z,16.50
2022-09-14T01:56:40.081Z,16.50
2022-09-14T01:59:42.860Z,16.40
2022-09-14T02:02:15.820Z,16.50
2022-09-14T02:05:05.634Z,16.50
2022-09-14T02:07:33.237Z,16.50
2022-09-14T02:10:00.187Z,16.50
2022-09-14T02:12:27.381Z,16.50
2022-09-14T02:14:54.947Z,16.50
2022-09-14T02:17:22.664Z,16.50
2022-09-14T02:20:05.814Z,16.50
2022-09-14T02:22:32.908Z,16.50
2022-09-14T02:25:00.342Z,16.50
2022-09-14T02:27:27.335Z,16.50
2022-09-14T02:29:54.488Z,16.50
2022-09-14T02:32:58.760Z,16.50
2022-09-14T02:35:39.777Z,16.60
2022-09-14T02:38:56.930Z,16.60
2022-09-14T02:41:33.148Z,16.60
2022-09-14T02:44:27.077Z,16.60
2022-09-14T02:47:24.603Z,16.60
2022-09-14T02:50:06.610Z,16.60
2022-09-14T02:52:42.454Z,16.60
2022-09-14T02:55:20.114Z,16.60
2022-09-14T02:58:03.105Z,16.60
2022-09-14T03:00:31.944Z,16.60
2022-09-14T03:02:59.605Z,16.60
2022-09-14T03:05:29.528Z,16.60
2022-09-14T03:07:56.775Z,16.60
2022-09-14T03:10:24.311Z,16.60
2022-09-14T03:12:52.280Z,16.60
2022-09-14T03:15:19.776Z,16.60
2022-09-14T03:17:51.141Z,16.60
2022-09-14T03:20:21.176Z,16.60
2022-09-14T03:22:48.903Z,16.60
2022-09-14T03:25:17.202Z,16.60
2022-09-14T03:27:44.318Z,16.60
2022-09-14T03:30:12.254Z,16.60
2022-09-14T03:32:39.338Z,16.60
2022-09-14T03:35:07.417Z,16.60
2022-09-14T03:38:16.987Z,16.60
2022-09-14T03:40:45.013Z,16.60
2022-09-14T03:43:15.326Z,16.60
2022-09-14T03:45:42.864Z,16.50
2022-09-14T03:48:11.991Z,16.60
2022-09-14T03:50:41.623Z,16.60
2022-09-14T03:53:09.597Z,16.60
2022-09-14T03:55:37.138Z,16.60
2022-09-14T03:58:05.668Z,16.60
2022-09-14T04:00:33.040Z,16.60
2022-09-14T04:03:01.222Z,16.60
2022-09-14T04:05:55.891Z,16.60
2022-09-14T04:08:23.335Z,16.60
2022-09-14T04:10:50.938Z,16.60
2022-09-14T04:13:17.660Z,16.60
2022-09-14T04:15:50.543Z,16.60
2022-09-14T04:18:17.331Z,16.60
2022-09-14T04:20:46.764Z,16.60
2022-09-14T04:23:13.469Z,16.60
2022-09-14T04:25:40.224Z,16.60
2022-09-14T04:28:22.370Z,16.60
2022-09-14T04:31:02.750Z,16.60
2022-09-14T04:33:31.382Z,16.70
2022-09-14T04:36:07.897Z,16.70
2022-09-14T04:38:37.218Z,16.70
2022-09-14T04:41:09.426Z,16.70
2022-09-14T04:43:36.485Z,16.70
2022-09-14T04:46:05.617Z,16.70
2022-09-14T04:48:33.751Z,16.70
2022-09-14T04:51:07.411Z,16.70
2022-09-14T04:53:35.690Z,16.60
2022-09-14T04:56:12.858Z,16.60
2022-09-14T04:58:43.061Z,16.60
2022-09-14T05:01:15.238Z,16.60
2022-09-14T05:03:43.333Z,16.70
2022-09-14T05:06:17.366Z,16.70
2022-09-14T05:08:44.765Z,16.70
2022-09-14T05:11:14.641Z,16.70
2022-09-14T05:13:42.702Z,16.70
2022-09-14T05:16:23.589Z,16.70
2022-09-14T05:18:51.749Z,16.70
2022-09-14T05:21:20.407Z,16.70
2022-09-14T05:23:47.745Z,16.70
2022-09-14T05:26:14.970Z,16.80
2022-09-14T05:28:41.974Z,16.80
2022-09-14T05:31:13.172Z,16.80
2022-09-14T05:33:40.086Z,16.90
2022-09-14T05:36:08.602Z,16.90
2022-09-14T05:38:37.499Z,16.90
2022-09-14T05:41:05.508Z,16.90
2022-09-14T05:43:32.537Z,17.00
2022-09-14T05:46:23.264Z,17.10
2022-09-14T05:48:52.211Z,17.10
2022-09-14T05:51:21.684Z,17.20
2022-09-14T05:53:53.643Z,17.20
2022-09-14T05:56:22.063Z,17.30
2022-09-14T05:58:49.429Z,17.50
2022-09-14T06:01:22.066Z,17.50
2022-09-14T06:03:49.898Z,17.60
2022-09-14T06:06:18.707Z,17.60
2022-09-14T06:08:45.918Z,17.80
2022-09-14T06:11:17.603Z,18.00
2022-09-14T06:13:46.716Z,18.10
2022-09-14T06:16:18.617Z,18.30
2022-09-14T06:18:46.730Z,18.50
2022-09-14T06:21:16.723Z,18.70
2022-09-14T06:23:44.358Z,18.80
2022-09-14T06:26:11.869Z,18.90
2022-09-14T06:28:39.220Z,19.00
2022-09-14T06:31:07.824Z,19.10
2022-09-14T06:33:34.975Z,19.10
2022-09-14T06:36:12.495Z,19.10
2022-09-14T06:38:40.345Z,19.10
2022-09-14T06:41:09.343Z,19.10
2022-09-14T06:43:38.962Z,19.00
2022-09-14T06:46:27.365Z,19.00
2022-09-14T06:49:05.030Z,19.00
2022-09-14T06:51:51.059Z,19.00
2022-09-14T06:54:18.696Z,19.00
2022-09-14T06:56:46.562Z,19.00
2022-09-14T06:59:15.712Z,19.00
2022-09-14T07:01:44.899Z,19.10
2022-09-14T07:04:12.458Z,19.10
2022-09-14T07:06:40.906Z,19.20
2022-09-14T07:09:08.061Z,19.30
2022-09-14T07:11:35.690Z,19.30
2022-09-14T07:14:02.803Z,19.40
2022-09-14T07:16:31.611Z,19.50
2022-09-14T07:19:02.396Z,19.60
2022-09-14T07:21:31.080Z,19.80
2022-09-14T07:23:57.957Z,19.80
2022-09-14T07:26:26.888Z,19.90
2022-09-14T07:28:59.353Z,20.00
2022-09-14T07:31:38.253Z,20.20
2022-09-14T07:34:05.929Z,20.20
2022-09-14T07:36:35.023Z,20.30
2022-09-14T07:39:05.031Z,20.30
2022-09-14T07:41:34.883Z,20.40
2022-09-14T07:44:03.547Z,20.40
2022-09-14T07:46:33.262Z,20.40
2022-09-14T07:49:02.157Z,20.50
2022-09-14T07:51:30.420Z,20.50
2022-09-14T07:53:59.707Z,20.60
2022-09-14T07:56:26.673Z,20.60
2022-09-14T07:59:07.099Z,20.70
2022-09-14T08:01:42.980Z,20.70
2022-09-14T08:04:09.960Z,20.70
2022-09-14T08:06:37.305Z,20.80
2022-09-14T08:09:08.479Z,20.80
2022-09-14T08:11:35.741Z,21.00
2022-09-14T08:14:05.784Z,21.10
2022-09-14T08:16:34.767Z,21.20
2022-09-14T08:19:03.975Z,21.40
2022-09-14T08:21:32.281Z,21.50
2022-09-14T08:24:02.391Z,21.60
2022-09-14T08:26:29.917Z,21.70
2022-09-14T08:28:57.294Z,21.80
2022-09-14T08:31:25.998Z,22.00
2022-09-14T08:33:55.267Z,22.10
2022-09-14T08:36:23.931Z,22.30
2022-09-14T08:38:50.755Z,22.50
2022-09-14T08:41:38.644Z,22.60
2022-09-14T08:44:14.873Z,22.70
2022-09-14T08:46:49.618Z,22.80
2022-09-14T08:49:39.039Z,23.00
2022-09-14T08:52:06.179Z,23.00
2022-09-14T08:54:33.388Z,23.00
2022-09-14T08:57:09.621Z,23.00
2022-09-14T09:00:03.182Z,23.10
2022-09-14T09:02:54.698Z,23.00
2022-09-14T09:05:36.725Z,23.00
2022-09-14T09:08:34.421Z,22.90
2022-09-14T09:11:02.677Z,22.80
2022-09-14T09:13:32.733Z,22.80
2022-09-14T09:16:03.267Z,22.70
2022-09-14T09:18:37.301Z,22.80
2022-09-14T09:21:17.526Z,22.80
2022-09-14T09:23:44.828Z,22.80
2022-09-14T09:26:27.590Z,22.90
2022-09-14T09:29:00.396Z,23.00
2022-09-14T09:31:51.811Z,23.10
2022-09-14T09:34:27.868Z,23.20
2022-09-14T09:36:55.996Z,23.40
2022-09-14T09:39:26.206Z,23.50
2022-09-14T09:42:21.779Z,23.60
2022-09-14T09:45:02.467Z,23.80
2022-09-14T09:47:41.843Z,23.90
2022-09-14T09:50:14.849Z,23.90
2022-09-14T09:53:01.177Z,24.00
2022-09-14T09:55:39.206Z,23.90
2022-09-14T09:58:27.051Z,23.80
2022-09-14T10:01:22.103Z,23.80
2022-09-14T10:04:15.064Z,23.80
2022-09-14T10:06:44.600Z,23.90
2022-09-14T10:09:20.370Z,23.90
2022-09-14T10:11:55.724Z,24.00
2022-09-14T10:14:25.822Z,24.00
2022-09-14T10:16:53.135Z,24.00
2022-09-14T10:19:24.507Z,24.00
2022-09-14T10:22:24.249Z,24.00
2022-09-14T10:24:57.428Z,24.00
2022-09-14T10:27:38.611Z,24.00
2022-09-14T10:30:12.352Z,24.10
2022-09-14T10:32:42.485Z,24.20
2022-09-14T10:35:14.037Z,24.20
2022-09-14T10:38:10.734Z,24.30
2022-09-14T10:40:44.004Z,24.30
2022-09-14T10:43:27.347Z,24.20
2022-09-14T10:45:59.662Z,24.20
2022-09-14T10:48:45.364Z,24.10
2022-09-14T10:51:35.775Z,24.20
2022-09-14T10:54:30.138Z,24.40
2022-09-14T10:57:15.015Z,24.70
2022-09-14T11:00:20.152Z,24.90
2022-09-14T11:02:49.949Z,25.10
2022-09-14T11:05:19.468Z,25.00
2022-09-14T11:07:49.194Z,24.90
2022-09-14T11:10:32.667Z,24.70
2022-09-14T11:13:31.010Z,24.60
2022-09-14T11:16:29.770Z,24.60
2022-09-14T11:19:24.530Z,24.60
2022-09-14T11:22:19.293Z,24.70
2022-09-14T11:24:53.448Z,24.80
2022-09-14T11:27:29.167Z,24.80
2022-09-14T11:30:08.783Z,24.90
2022-09-14T11:33:03.933Z,25.20
2022-09-14T11:35:39.878Z,25.60
2022-09-14T11:38:20.711Z,26.00
2022-09-14T11:40:57.261Z,26.40
2022-09-14T11:43:56.719Z,26.40
2022-09-14T11:48:55.099Z,26.20
2022-09-14T11:51:28.569Z,26.00
2022-09-14T11:53:55.598Z,25.90
2022-09-14T11:56:29.576Z,25.80
2022-09-14T11:58:59.386Z,25.90
2022-09-14T12:01:28.364Z,25.80
2022-09-14T12:04:16.984Z,26.00
2022-09-14T12:06:52.990Z,26.00
2022-09-14T12:09:24.565Z,25.90
2022-09-14T12:11:56.575Z,25.80
2022-09-14T12:14:35.904Z,25.70
2022-09-14T12:20:28.738Z,25.70
2022-09-14T12:23:11.315Z,25.70
2022-09-14T12:25:39.894Z,25.60
2022-09-14T12:28:47.963Z,25.50
2022-09-14T12:31:30.055Z,25.30
2022-09-14T12:34:05.987Z,25.00
2022-09-14T12:36:32.674Z,24.90
2022-09-14T12:38:59.593Z,24.80
2022-09-14T12:41:46.363Z,24.70
2022-09-14T12:44:43.130Z,24.60
2022-09-14T12:47:28.756Z,24.60
2022-09-14T12:49:57.857Z,24.60
2022-09-14T12:53:03.219Z,24.60
2022-09-14T12:55:57.260Z,24.50
2022-09-14T12:58:56.705Z,24.40
2022-09-14T13:01:32.749Z,24.50
2022-09-14T13:03:59.681Z,24.50
2022-09-14T13:06:40.671Z,24.50
2022-09-14T13:09:20.440Z,24.70
2022-09-14T13:11:53.268Z,24.80
2022-09-14T13:14:22.721Z,24.80
2022-09-14T13:16:51.546Z,24.90
2022-09-14T13:19:29.648Z,24.80
2022-09-14T13:21:59.041Z,24.90
2022-09-14T13:24:34.907Z,25.00
2022-09-14T13:27:03.334Z,25.00
2022-09-14T13:29:31.185Z,25.20
2022-09-14T13:32:03.390Z,25.20
2022-09-14T13:34:34.500Z,25.20
2022-09-14T13:37:02.123Z,25.20
2022-09-14T13:39:30.251Z,25.20
2022-09-14T13:41:58.451Z,25.20
2022-09-14T13:44:34.610Z,25.10
2022-09-14T13:47:05.712Z,25.10
2022-09-14T13:49:35.499Z,25.00
2022-09-14T13:52:33.991Z,25.10
2022-09-14T13:55:15.193Z,25.10
2022-09-14T13:58:04.868Z,25.20
2022-09-14T14:00:33.207Z,25.20
2022-09-14T14:03:04.949Z,25.40
2022-09-14T14:05:35.171Z,25.30
2022-09-14T14:08:04.770Z,25.10
2022-09-14T14:10:37.267Z,25.00
2022-09-14T14:13:05.326Z,25.00
2022-09-14T14:15:40.022Z,25.00
2022-09-14T14:18:34.890Z,25.10
2022-09-14T14:21:14.239Z,25.00
2022-09-14T14:23:56.720Z,24.10
2022-09-14T14:26:29.207Z,23.40
2022-09-14T14:29:08.393Z,22.80
2022-09-14T14:31:35.391Z,22.30
2022-09-14T14:34:18.634Z,22.20
2022-09-14T14:36:47.217Z,22.00
2022-09-14T14:39:14.525Z,21.90
2022-09-14T14:41:41.460Z,21.70
2022-09-14T14:44:12.851Z,21.50
2022-09-14T14:46:42.284Z,21.40
2022-09-14T14:49:13.917Z,21.30
2022-09-14T14:51:40.611Z,21.20
2022-09-14T14:54:08.763Z,21.10
2022-09-14T14:56:36.342Z,20.80
2022-09-14T14:59:03.296Z,20.40
2022-09-14T15:01:30.215Z,20.00
2022-09-14T15:03:57.130Z,19.80
2022-09-14T15:06:27.367Z,19.70
2022-09-14T15:08:56.009Z,19.60
2022-09-14T15:11:23.072Z,19.60
2022-09-14T15:13:50.210Z,19.50
2022-09-14T15:16:17.605Z,19.60
2022-09-14T15:18:44.969Z,19.50
2022-09-14T15:21:11.779Z,19.50
2022-09-14T15:23:39.021Z,19.40
2022-09-14T15:26:05.951Z,19.30
2022-09-14T15:28:35.869Z,19.20
2022-09-14T15:31:07.120Z,19.10
2022-09-14T15:33:34.769Z,19.10
2022-09-14T15:36:01.778Z,19.00
2022-09-14T15:38:28.518Z,19.10
2022-09-14T15:40:55.430Z,19.10
2022-09-14T15:43:22.233Z,19.10
2022-09-14T15:45:49.384Z,19.10
2022-09-14T15:48:18.093Z,19.10
2022-09-14T15:50:47.142Z,19.20
2022-09-14T15:53:18.396Z,19.10
2022-09-14T15:55:45.858Z,19.20
2022-09-14T15:58:12.814Z,19.10
2022-09-14T16:00:44.057Z,19.10
2022-09-14T16:03:12.096Z,19.10
2022-09-14T16:05:39.895Z,19.10
2022-09-14T16:08:06.908Z,19.10
2022-09-14T16:10:33.725Z,19.10
2022-09-14T16:13:00.541Z,19.20
2022-09-14T16:15:27.388Z,19.40
2022-09-14T16:17:55.440Z,19.50
2022-09-14T16:20:22.642Z,19.70
2022-09-14T16:22:50.042Z,19.70
2022-09-14T16:25:17.277Z,19.80
2022-09-14T16:27:44.334Z,19.80
2022-09-14T16:30:11.500Z,19.80
2022-09-14T16:32:38.411Z,19.80
2022-09-14T16:35:08.067Z,19.90
2022-09-14T16:37:35.138Z,19.90
2022-09-14T16:40:03.267Z,19.80
2022-09-14T16:42:30.069Z,19.80
2022-09-14T16:44:56.893Z,19.70
2022-09-14T16:47:25.767Z,19.60
2022-09-14T16:49:53.306Z,19.50
2022-09-14T16:52:20.184Z,19.50
2022-09-14T16:54:47.006Z,19.40
2022-09-14T16:57:13.907Z,19.30
2022-09-14T16:59:40.765Z,19.20
2022-09-14T17:02:11.046Z,19.20
2022-09-14T17:04:37.939Z,19.10
2022-09-14T17:07:05.102Z,19.00
2022-09-14T17:09:33.108Z,18.90
2022-09-14T17:12:01.646Z,18.80
2022-09-14T17:14:31.226Z,18.80
2022-09-14T17:16:59.028Z,18.70
2022-09-14T17:19:26.935Z,18.60
2022-09-14T17:21:54.260Z,18.60
2022-09-14T17:24:21.745Z,18.50
2022-09-14T17:26:48.996Z,18.50
2022-09-14T17:29:15.958Z,18.40
2022-09-14T17:31:44.210Z,18.40
2022-09-14T17:34:13.925Z,18.40
2022-09-14T17:36:40.749Z,18.30
2022-09-14T17:39:11.638Z,18.30
2022-09-14T17:41:41.123Z,18.20
2022-09-14T17:44:11.617Z,18.20
2022-09-14T17:46:45.993Z,18.20
2022-09-14T17:51:50.252Z,18.10
2022-09-14T17:54:17.988Z,18.10
2022-09-14T17:56:45.309Z,18.10
2022-09-14T17:59:14.856Z,18.10
2022-09-14T18:01:41.974Z,18.00
2022-09-14T18:04:13.127Z,18.00
2022-09-14T18:06:43.023Z,17.90
2022-09-14T18:09:15.028Z,17.90
2022-09-14T18:11:42.229Z,17.90
2022-09-14T18:14:12.836Z,17.90
2022-09-14T18:16:40.810Z,17.80
2022-09-14T18:19:07.717Z,17.80
2022-09-14T18:21:34.458Z,17.80
2022-09-14T18:24:01.586Z,17.80
2022-09-14T18:26:28.452Z,17.80
2022-09-14T18:28:58.893Z,17.80
2022-09-14T18:31:26.237Z,17.90
2022-09-14T18:33:55.766Z,17.90
2022-09-14T18:36:22.749Z,17.90
2022-09-14T18:38:49.848Z,17.90
2022-09-14T18:41:17.832Z,17.90
2022-09-14T18:43:46.194Z,17.90
2022-09-14T18:46:14.345Z,17.90
2022-09-14T18:48:43.635Z,17.80
2022-09-14T18:51:12.290Z,17.80
2022-09-14T18:53:39.904Z,17.70
2022-09-14T18:56:09.782Z,17.70
2022-09-14T18:58:38.514Z,17.70
2022-09-14T19:01:05.661Z,17.70
2022-09-14T19:03:33.207Z,17.60
2022-09-14T19:06:08.901Z,17.60
2022-09-14T19:08:39.657Z,17.60
2022-09-14T19:11:29.127Z,17.50
2022-09-14T19:14:09.351Z,17.50
2022-09-14T19:16:37.950Z,17.40
2022-09-14T19:19:05.868Z,17.40
2022-09-14T19:21:32.775Z,17.30
2022-09-14T19:24:00.750Z,17.30
2022-09-14T19:26:30.869Z,17.30
2022-09-14T19:29:00.637Z,17.30
2022-09-14T19:31:30.409Z,17.20
2022-09-14T19:34:02.055Z,17.20
2022-09-14T19:36:29.631Z,17.10
2022-09-14T19:39:01.621Z,17.10
2022-09-14T19:41:29.784Z,17.10
2022-09-14T19:43:56.598Z,17.00
2022-09-14T19:46:23.594Z,17.00
2022-09-14T19:48:50.687Z,17.00
2022-09-14T19:51:23.443Z,16.90
2022-09-14T19:53:51.800Z,16.90
2022-09-14T19:56:21.702Z,16.80
2022-09-14T19:58:50.801Z,16.80
2022-09-14T20:01:19.406Z,16.80
2022-09-14T20:03:48.006Z,16.70
2022-09-14T20:06:22.681Z,16.70
2022-09-14T20:08:56.710Z,16.70
2022-09-14T20:11:25.281Z,16.60
2022-09-14T20:13:59.168Z,16.60
2022-09-14T20:16:29.262Z,16.60
2022-09-14T20:19:02.958Z,16.60
2022-09-14T20:21:29.664Z,16.50
2022-09-14T20:24:15.638Z,16.50
2022-09-14T20:26:43.669Z,16.50
2022-09-14T20:29:11.167Z,16.50
2022-09-14T20:31:38.205Z,16.50
2022-09-14T20:34:05.239Z,16.50
2022-09-14T20:36:32.550Z,16.50
2022-09-14T20:38:59.913Z,16.50
2022-09-14T20:41:33.332Z,16.50
2022-09-14T20:44:00.655Z,16.50
2022-09-14T20:46:35.058Z,16.60
2022-09-14T20:49:04.242Z,16.60
2022-09-14T20:51:31.081Z,16.60
2022-09-14T20:53:58.328Z,16.60
2022-09-14T20:56:27.308Z,16.60
2022-09-14T20:58:56.045Z,16.60
2022-09-14T21:01:25.534Z,16.60
2022-09-14T21:03:53.543Z,16.60
2022-09-14T21:06:23.607Z,16.60
2022-09-14T21:08:51.033Z,16.60
2022-09-14T21:11:21.801Z,16.70
2022-09-14T21:13:49.587Z,16.60
2022-09-14T21:16:27.722Z,16.60
2022-09-14T21:18:57.618Z,16.70
2022-09-14T21:21:24.607Z,16.60
2022-09-14T21:23:52.646Z,16.60
2022-09-14T21:26:20.226Z,16.70
2022-09-14T21:28:47.603Z,16.70
2022-09-14T21:31:19.780Z,16.80
2022-09-14T21:33:50.236Z,16.80
2022-09-14T21:36:22.479Z,16.80
2022-09-14T21:38:50.720Z,16.90
2022-09-14T21:41:18.909Z,16.90
2022-09-14T21:43:46.046Z,17.00
2022-09-14T21:46:12.931Z,17.00
2022-09-14T21:48:39.974Z,17.10
2022-09-14T21:51:23.498Z,17.10
2022-09-14T21:53:55.971Z,17.10
2022-09-14T21:56:25.227Z,17.10
2022-09-14T21:58:54.116Z,17.10
2022-09-14T22:01:22.234Z,17.10
2022-09-14T22:03:51.524Z,17.10
2022-09-14T22:06:20.559Z,17.10
2022-09-14T22:08:49.137Z,17.00
2022-09-14T22:11:25.712Z,17.00
2022-09-14T22:14:03.915Z,17.00
2022-09-14T22:16:35.028Z,17.00
2022-09-14T22:19:04.242Z,17.00
2022-09-14T22:21:33.603Z,17.00
2022-09-14T22:24:03.001Z,17.00
2022-09-14T22:26:31.411Z,17.00
2022-09-14T22:28:59.198Z,17.00
2022-09-14T22:31:27.437Z,17.00
2022-09-14T22:33:56.112Z,17.00
2022-09-14T22:36:23.152Z,17.00
2022-09-14T22:38:49.978Z,17.00
2022-09-14T22:41:19.483Z,17.00
2022-09-14T22:43:46.736Z,16.90
2022-09-14T22:46:14.230Z,16.90
2022-09-14T22:48:41.341Z,16.90
2022-09-14T22:51:11.092Z,16.90
2022-09-14T22:53:38.240Z,16.90
2022-09-14T22:56:18.440Z,16.90
2022-09-14T22:58:46.274Z,17.00
2022-09-14T23:01:16.232Z,17.00
2022-09-14T23:03:43.282Z,17.10
2022-09-14T23:06:10.832Z,17.10
2022-09-14T23:08:38.245Z,17.10
2022-09-14T23:11:07.839Z,17.20
2022-09-14T23:13:39.710Z,17.20
2022-09-14T23:16:13.730Z,17.20
2022-09-14T23:18:40.779Z,17.20
2022-09-14T23:21:07.742Z,17.20
2022-09-14T23:23:34.863Z,17.30
2022-09-14T23:26:06.763Z,17.30
2022-09-14T23:28:34.309Z,17.20
2022-09-14T23:31:01.599Z,17.30
2022-09-14T23:33:29.383Z,17.30
2022-09-14T23:35:56.527Z,17.20
2022-09-14T23:38:24.086Z,17.30
2022-09-14T23:40:50.855Z,17.30
2022-09-14T23:43:18.718Z,17.30
2022-09-14T23:45:46.991Z,17.30
2022-09-14T23:48:14.933Z,17.30
2022-09-14T23:50:42.114Z,17.30
2022-09-14T23:53:09.002Z,17.30
2022-09-14T23:55:35.841Z,17.30
2022-09-14T23:58:02.933Z,17.20
